Flinterduin — PEBT — position and weather

sailwx.info

Track history (hours):
 
Tides and Currents Weather Stations Pressure Air Temp Water Temp Dewpoint Dewpoint Depression Visibility Wind Speed Wind Dir Waves Ship Positions

Flinterduin

Last reported at 2018-Jan-12 15:00 UTC. Time now 2018-Jan-18 10:22 UTC.
Position N 56°07' E 016°39'.

Length 112 m; beam 15 m.

Type: Cargo ship. MMSI: 246484000.

Date/timePositionNaut miles runAvg speedWind from/ knotsBaromVisibWave heightAir tempDewpointWater temp
2018-Jan-12 15:00N 56°07' E 016°39'5 9.4
2018-Jan-12 14:30N 56°10' E 016°46'39 9.5
2018-Jan-12 10:26N 56°33' E 017°41'170 3.3
2018-Jan-10 07:06N 57°47' E 022°24'410.5
2018-Jan-10 06:46N 57°46' E 022°18'510.5
2018-Jan-10 06:15N 57°43' E 022°09'2010.2
2018-Jan-10 04:17N 57°39' E 021°33'4310.9
2018-Jan-10 00:24N 57°10' E 020°36'811.0
2018-Jan-09 23:40N 57°04' E 020°25'211.2
2018-Jan-09 23:30N 57°03' E 020°22'611.2
2018-Jan-09 22:57N 56°59' E 020°14'4910.9
2018-Jan-09 18:30N 56°25' E 019°10'510.6
2018-Jan-09 18:00N 56°21' E 019°04'510.5
2018-Jan-09 17:30N 56°18' E 018°57'510.6
2018-Jan-09 17:01N 56°14' E 018°50'510.6
2018-Jan-09 16:30N 56°11' E 018°43'510.6
2018-Jan-09 16:00N 56°07' E 018°36'510.7
2018-Jan-09 15:31N 56°03' E 018°29'510.8
2018-Jan-09 15:00N 55°59' E 018°23'510.7
2018-Jan-09 14:30N 55°56' E 018°16'510.6
2018-Jan-09 14:00N 55°52' E 018°09'510.6
2018-Jan-09 13:30N 55°48' E 018°02'510.7
2018-Jan-09 13:00N 55°45' E 017°55'510.7
2018-Jan-09 12:31N 55°41' E 017°48'510.5
2018-Jan-09 12:01N 55°37' E 017°41'510.5
2018-Jan-09 11:31N 55°34' E 017°34'510.4
2018-Jan-09 11:00N 55°31' E 017°27'510.6
2018-Jan-09 10:30N 55°27' E 017°20'510.5
2018-Jan-09 10:00N 55°23' E 017°14'510.6
2018-Jan-09 09:31N 55°20' E 017°07'510.6
2018-Jan-09 09:00N 55°16' E 017°00'510.6
2018-Jan-09 08:31N 55°12' E 016°54'510.7
2018-Jan-09 08:01N 55°08' E 016°48'610.4
2018-Jan-09 07:24N 55°04' E 016°40'410.7
2018-Jan-09 07:00N 55°01' E 016°34'510.4
2018-Jan-09 06:29N 54°57' E 016°27'510.4
2018-Jan-09 06:00N 54°54' E 016°21'710.4
2018-Jan-09 05:21N 54°50' E 016°12'410.3
2018-Jan-09 05:00N 54°48' E 016°07'510.5
2018-Jan-09 04:30N 54°45' E 015°60'510.3
2018-Jan-09 04:00N 54°42' E 015°52'510.3
2018-Jan-09 03:30N 54°38' E 015°45'610.2
2018-Jan-09 02:57N 54°35' E 015°37'710.4
2018-Jan-09 02:18N 54°31' E 015°28'310.5
2018-Jan-09 02:00N 54°29' E 015°23'910.5
2018-Jan-09 01:10N 54°24' E 015°11'47 8.6
2018-Jan-08 19:43N 53°47' E 014°22'210.6
2018-Jan-08 19:30N 53°46' E 014°24'510.7
2018-Jan-08 19:00N 53°41' E 014°30'510.1
2018-Jan-08 18:30N 53°37' E 014°35'5 9.4
2018-Jan-08 18:01N 53°33' E 014°37'4 8.6
2018-Jan-08 17:31N 53°29' E 014°37'3 6.9
2018-Jan-08 17:01N 53°25' E 014°34'0 0.1
2018-Jan-08 16:30N 53°25' E 014°34'0 0.0
2018-Jan-08 16:00N 53°25' E 014°34'0 0.0
2018-Jan-08 15:30N 53°25' E 014°34'0 0.0
2018-Jan-08 15:00N 53°25' E 014°34'0 0.0
2018-Jan-08 14:30N 53°25' E 014°34'0 0.0
2018-Jan-08 14:00N 53°25' E 014°34'0 0.0
2018-Jan-08 13:30N 53°25' E 014°34'0 0.0
2018-Jan-08 13:00N 53°25' E 014°34'0 0.0
2018-Jan-08 12:30N 53°25' E 014°34'0 0.0
2018-Jan-08 12:00N 53°25' E 014°34'0 0.0
2018-Jan-08 11:30N 53°25' E 014°34'0 0.0
2018-Jan-08 11:00N 53°25' E 014°34'0 0.0
2018-Jan-08 10:30N 53°25' E 014°34'0 0.0
2018-Jan-08 10:00N 53°25' E 014°34'0 0.0
2018-Jan-08 09:30N 53°25' E 014°34'0 0.0
2018-Jan-08 08:59N 53°25' E 014°34'0 0.0
2018-Jan-08 08:29N 53°25' E 014°34'0 0.0
2018-Jan-08 07:59N 53°25' E 014°34'0 0.0
2018-Jan-08 07:29N 53°25' E 014°34'0 0.0
2018-Jan-08 06:59N 53°25' E 014°34'0 0.0
2018-Jan-08 06:29N 53°25' E 014°34'0 0.0
2018-Jan-08 05:59N 53°25' E 014°34'0 0.0
2018-Jan-08 05:29N 53°25' E 014°34'0 0.0
2018-Jan-08 04:59N 53°25' E 014°34'0 0.0
2018-Jan-08 04:29N 53°25' E 014°34'0 0.0
2018-Jan-08 03:59N 53°25' E 014°34'0 0.0
2018-Jan-08 03:26N 53°25' E 014°34'0 0.0
2018-Jan-08 02:59N 53°25' E 014°34'0 0.0
2018-Jan-08 02:29N 53°25' E 014°34'0 0.0
2018-Jan-08 01:59N 53°25' E 014°34'0 0.0
2018-Jan-08 01:29N 53°25' E 014°34'0 0.0
2018-Jan-08 00:59N 53°25' E 014°34'0 0.0
2018-Jan-08 00:29N 53°25' E 014°34'0 0.0
2018-Jan-07 23:59N 53°25' E 014°34'0 0.0
2018-Jan-07 23:29N 53°25' E 014°34'0 0.0
2018-Jan-07 22:59N 53°25' E 014°34'0 0.0
2018-Jan-07 22:29N 53°25' E 014°34'0 0.0
2018-Jan-07 21:59N 53°25' E 014°34'0 0.0
2018-Jan-07 21:29N 53°25' E 014°34'0 0.0
2018-Jan-07 20:59N 53°25' E 014°34'0 0.0
2018-Jan-07 20:29N 53°25' E 014°34'0 0.0
2018-Jan-07 19:59N 53°25' E 014°34'0 0.0
2018-Jan-07 19:29N 53°25' E 014°34'0 0.0
2018-Jan-07 18:59N 53°25' E 014°34'0 0.0
2018-Jan-07 18:29N 53°25' E 014°34'0 0.0
2018-Jan-07 17:59N 53°25' E 014°34'0 0.0
2018-Jan-07 17:29N 53°25' E 014°34'0 0.0
2018-Jan-07 16:59N 53°25' E 014°34'0 0.0
2018-Jan-07 16:29N 53°25' E 014°34'0 0.0
2018-Jan-07 15:59N 53°25' E 014°34'0 0.0
2018-Jan-07 15:26N 53°25' E 014°34'0 0.0
2018-Jan-07 14:59N 53°25' E 014°34'0 0.0
2018-Jan-07 14:29N 53°25' E 014°34'0 0.0
2018-Jan-07 13:59N 53°25' E 014°34'0 0.0
2018-Jan-07 13:26N 53°25' E 014°34'0 0.0
2018-Jan-07 12:59N 53°25' E 014°34'0 0.0
2018-Jan-07 12:29N 53°25' E 014°34'0 0.0
2018-Jan-07 11:59N 53°25' E 014°34'0 0.0
2018-Jan-07 11:29N 53°25' E 014°34'0 0.0
2018-Jan-07 10:59N 53°25' E 014°34'0 0.0
2018-Jan-07 10:29N 53°25' E 014°34'0 0.0
2018-Jan-07 09:59N 53°25' E 014°34'0 0.0
2018-Jan-07 09:29N 53°25' E 014°34'0 0.0
2018-Jan-07 08:56N 53°25' E 014°34'0 0.0
2018-Jan-07 08:29N 53°25' E 014°34'0 0.0
2018-Jan-07 07:56N 53°25' E 014°34'0 0.0
2018-Jan-07 07:29N 53°25' E 014°34'0 0.0
2018-Jan-07 06:59N 53°25' E 014°34'0 0.0
2018-Jan-07 06:29N 53°25' E 014°34'0 0.0
2018-Jan-07 05:59N 53°25' E 014°34'0 0.0
2018-Jan-07 05:29N 53°25' E 014°34'0 0.0
2018-Jan-07 04:59N 53°25' E 014°34'0 0.0
2018-Jan-07 04:29N 53°25' E 014°34'0 0.0
2018-Jan-07 03:59N 53°25' E 014°34'0 0.0
2018-Jan-07 03:29N 53°25' E 014°34'0 0.0
2018-Jan-07 02:59N 53°25' E 014°34'0 0.0
2018-Jan-07 02:29N 53°25' E 014°34'0 0.0
2018-Jan-07 01:59N 53°25' E 014°34'0 0.0
2018-Jan-07 01:29N 53°25' E 014°34'0 0.0
2018-Jan-07 00:29N 53°25' E 014°34'0 0.0
2018-Jan-06 23:59N 53°25' E 014°34'0 0.0
2018-Jan-06 23:29N 53°25' E 014°34'0 0.0
2018-Jan-06 22:59N 53°25' E 014°34'0 0.0
2018-Jan-06 22:29N 53°25' E 014°34'0 0.0
2018-Jan-06 21:56N 53°25' E 014°34'0 0.0
2018-Jan-06 21:29N 53°25' E 014°34'0 0.0
2018-Jan-06 20:58N 53°25' E 014°34'0 0.0
2018-Jan-06 20:28N 53°25' E 014°34'0 0.0
2018-Jan-06 19:58N 53°25' E 014°34'0 0.0
2018-Jan-06 19:28N 53°25' E 014°34'0 0.0
2018-Jan-06 18:58N 53°25' E 014°34'0 0.0
2018-Jan-06 18:25N 53°25' E 014°34'0 0.0
2018-Jan-06 17:58N 53°25' E 014°34'0 0.0
2018-Jan-06 17:28N 53°25' E 014°34'0 0.0
2018-Jan-06 16:58N 53°25' E 014°34'0 0.0
2018-Jan-06 16:28N 53°25' E 014°34'0 0.0
2018-Jan-06 15:58N 53°25' E 014°34'0 0.0
2018-Jan-06 15:28N 53°25' E 014°34'0 0.0
2018-Jan-06 14:58N 53°25' E 014°34'0 0.0
2018-Jan-06 14:28N 53°25' E 014°34'0 0.0
2018-Jan-06 13:58N 53°25' E 014°34'0 0.0
2018-Jan-06 13:25N 53°25' E 014°34'0 0.0
2018-Jan-06 12:58N 53°25' E 014°34'0 0.0
2018-Jan-06 12:28N 53°25' E 014°34'0 0.0
2018-Jan-06 11:58N 53°25' E 014°34'0 0.0
2018-Jan-06 11:28N 53°25' E 014°34'0 0.0
2018-Jan-06 10:58N 53°25' E 014°34'0 0.0
2018-Jan-06 10:28N 53°25' E 014°34'0 0.0
2018-Jan-06 09:58N 53°25' E 014°34'0 0.0
2018-Jan-06 09:28N 53°25' E 014°34'0 0.0
2018-Jan-06 08:58N 53°25' E 014°34'0 0.0
2018-Jan-06 08:28N 53°25' E 014°34'0 0.0
2018-Jan-06 07:55N 53°25' E 014°34'0 0.0
2018-Jan-06 07:28N 53°25' E 014°34'0 0.0
2018-Jan-06 06:58N 53°25' E 014°34'0 0.0
2018-Jan-06 06:28N 53°25' E 014°34'0 0.0
2018-Jan-06 05:58N 53°25' E 014°34'0 0.0
2018-Jan-06 05:28N 53°25' E 014°34'0 0.0
2018-Jan-06 04:58N 53°25' E 014°34'0 0.0
2018-Jan-06 04:28N 53°25' E 014°34'0 0.0
2018-Jan-06 03:58N 53°25' E 014°34'0 0.0
2018-Jan-06 03:28N 53°25' E 014°34'0 0.0
2018-Jan-06 02:58N 53°25' E 014°34'0 0.0
2018-Jan-06 02:28N 53°25' E 014°34'0 0.0
2018-Jan-06 01:58N 53°25' E 014°34'0 0.0
2018-Jan-06 01:28N 53°25' E 014°34'0 0.0
2018-Jan-06 00:58N 53°25' E 014°34'0 0.0
2018-Jan-06 00:28N 53°25' E 014°34'0 0.0
2018-Jan-05 23:58N 53°25' E 014°34'0 0.0
2018-Jan-05 23:28N 53°25' E 014°34'0 0.0
2018-Jan-05 22:58N 53°25' E 014°34'0 0.0
2018-Jan-05 22:28N 53°25' E 014°34'0 0.0
2018-Jan-05 21:58N 53°25' E 014°34'0 0.0
2018-Jan-05 21:28N 53°25' E 014°34'0 0.0
2018-Jan-05 20:58N 53°25' E 014°34'0 0.0
2018-Jan-05 20:28N 53°25' E 014°34'0 0.0
2018-Jan-05 19:58N 53°25' E 014°34'0 0.0
2018-Jan-05 19:28N 53°25' E 014°34'0 0.0
2018-Jan-05 18:58N 53°25' E 014°34'0 0.0
2018-Jan-05 18:28N 53°25' E 014°34'0 0.0
2018-Jan-05 17:58N 53°25' E 014°34'0 0.0
2018-Jan-05 17:25N 53°25' E 014°34'0 0.0
2018-Jan-05 16:58N 53°25' E 014°34'0 0.0
2018-Jan-05 16:28N 53°25' E 014°34'0 0.0
2018-Jan-05 15:58N 53°25' E 014°34'0 0.0
2018-Jan-05 15:28N 53°25' E 014°34'0 0.0
2018-Jan-05 14:58N 53°25' E 014°34'0 0.0
2018-Jan-05 14:28N 53°25' E 014°34'0 0.0
2018-Jan-05 13:58N 53°25' E 014°34'0 0.0
2018-Jan-05 13:28N 53°25' E 014°34'0 0.0
2018-Jan-05 12:55N 53°25' E 014°34'0 0.0
2018-Jan-05 12:25N 53°25' E 014°34'0 0.0
2018-Jan-05 11:58N 53°25' E 014°34'0 0.0
2018-Jan-05 11:28N 53°25' E 014°34'0 0.0
2018-Jan-05 10:58N 53°25' E 014°34'0 0.0
2018-Jan-05 10:31N 53°25' E 014°34'0 0.0
2018-Jan-05 10:01N 53°25' E 014°34'0 0.0
2018-Jan-05 09:30N 53°25' E 014°34'0 0.0
2018-Jan-05 09:00N 53°25' E 014°34'0 0.0
2018-Jan-05 08:30N 53°25' E 014°34'0 0.0
2018-Jan-05 08:00N 53°25' E 014°34'0 0.0
2018-Jan-05 07:30N 53°25' E 014°34'0 0.0
2018-Jan-05 07:00N 53°25' E 014°34'0 0.0
2018-Jan-05 06:30N 53°25' E 014°34'0 0.0
2018-Jan-05 06:00N 53°25' E 014°34'0 0.0
2018-Jan-05 05:30N 53°25' E 014°34'0 0.0
2018-Jan-05 05:00N 53°25' E 014°34'0 0.0
2018-Jan-05 04:30N 53°25' E 014°34'0 0.0
2018-Jan-05 04:00N 53°25' E 014°34'0 0.0
2018-Jan-05 03:30N 53°25' E 014°34'0 0.0
2018-Jan-05 03:00N 53°25' E 014°34'0 0.0
2018-Jan-05 02:30N 53°25' E 014°34'0 0.0
2018-Jan-05 02:00N 53°25' E 014°34'0 0.0
2018-Jan-05 01:30N 53°25' E 014°34'0 0.0
2018-Jan-05 01:00N 53°25' E 014°34'0 0.0
2018-Jan-05 00:30N 53°25' E 014°34'0 0.0
2018-Jan-05 00:00N 53°25' E 014°34'0 0.0
2018-Jan-04 23:30N 53°25' E 014°34'0 0.0
2018-Jan-04 23:00N 53°25' E 014°34'0 0.0
2018-Jan-04 22:30N 53°25' E 014°34'0 0.0
2018-Jan-04 22:00N 53°25' E 014°34'0 0.0
2018-Jan-04 21:30N 53°25' E 014°34'0 0.0
2018-Jan-04 21:00N 53°25' E 014°34'0 0.0
2018-Jan-04 20:30N 53°25' E 014°34'0 0.0
2018-Jan-04 20:00N 53°25' E 014°34'0 0.0
2018-Jan-04 19:30N 53°25' E 014°34'0 0.0
2018-Jan-04 19:00N 53°25' E 014°34'0 0.0
2018-Jan-04 18:30N 53°25' E 014°34'0 0.0
2018-Jan-04 18:00N 53°25' E 014°34'0 0.0
2018-Jan-04 17:30N 53°25' E 014°34'0 0.7
2018-Jan-04 17:00N 53°26' E 014°35'3 6.1
2018-Jan-04 16:30N 53°29' E 014°37'4 8.2
2018-Jan-04 16:00N 53°33' E 014°37'4 7.8
2018-Jan-04 15:29N 53°36' E 014°35'4 8.8
2018-Jan-04 15:00N 53°40' E 014°32'5 9.3
2018-Jan-04 14:30N 53°44' E 014°27'  
Track history (hours):
 
Tides and Currents Weather Stations Pressure Air Temp Water Temp Dewpoint Dewpoint Depression Visibility Wind Speed Wind Dir Waves Ship Positions

Flinterduin

Last reported at 2018-Jan-12 15:00 UTC. Time now 2018-Jan-18 10:22 UTC.
Position N 56°07' E 016°39'.

Length 112 m; beam 15 m.

Type: Cargo ship. MMSI: 246484000.

Date/timePositionNaut miles runAvg speedWind from/ knotsBaromVisibWave heightAir tempDewpointWater temp
2018-Jan-12 15:00N 56°07' E 016°39'5 9.4
2018-Jan-12 14:30N 56°10' E 016°46'39 9.5
2018-Jan-12 10:26N 56°33' E 017°41'170 3.3
2018-Jan-10 07:06N 57°47' E 022°24'410.5
2018-Jan-10 06:46N 57°46' E 022°18'510.5
2018-Jan-10 06:15N 57°43' E 022°09'2010.2
2018-Jan-10 04:17N 57°39' E 021°33'4310.9
2018-Jan-10 00:24N 57°10' E 020°36'811.0
2018-Jan-09 23:40N 57°04' E 020°25'211.2
2018-Jan-09 23:30N 57°03' E 020°22'611.2
2018-Jan-09 22:57N 56°59' E 020°14'4910.9
2018-Jan-09 18:30N 56°25' E 019°10'510.6
2018-Jan-09 18:00N 56°21' E 019°04'510.5
2018-Jan-09 17:30N 56°18' E 018°57'510.6
2018-Jan-09 17:01N 56°14' E 018°50'510.6
2018-Jan-09 16:30N 56°11' E 018°43'510.6
2018-Jan-09 16:00N 56°07' E 018°36'510.7
2018-Jan-09 15:31N 56°03' E 018°29'510.8
2018-Jan-09 15:00N 55°59' E 018°23'510.7
2018-Jan-09 14:30N 55°56' E 018°16'510.6
2018-Jan-09 14:00N 55°52' E 018°09'510.6
2018-Jan-09 13:30N 55°48' E 018°02'510.7
2018-Jan-09 13:00N 55°45' E 017°55'510.7
2018-Jan-09 12:31N 55°41' E 017°48'510.5
2018-Jan-09 12:01N 55°37' E 017°41'510.5
2018-Jan-09 11:31N 55°34' E 017°34'510.4
2018-Jan-09 11:00N 55°31' E 017°27'510.6
2018-Jan-09 10:30N 55°27' E 017°20'510.5
2018-Jan-09 10:00N 55°23' E 017°14'510.6
2018-Jan-09 09:31N 55°20' E 017°07'510.6
2018-Jan-09 09:00N 55°16' E 017°00'510.6
2018-Jan-09 08:31N 55°12' E 016°54'510.7
2018-Jan-09 08:01N 55°08' E 016°48'610.4
2018-Jan-09 07:24N 55°04' E 016°40'410.7
2018-Jan-09 07:00N 55°01' E 016°34'510.4
2018-Jan-09 06:29N 54°57' E 016°27'510.4
2018-Jan-09 06:00N 54°54' E 016°21'710.4
2018-Jan-09 05:21N 54°50' E 016°12'410.3
2018-Jan-09 05:00N 54°48' E 016°07'510.5
2018-Jan-09 04:30N 54°45' E 015°60'510.3
2018-Jan-09 04:00N 54°42' E 015°52'510.3
2018-Jan-09 03:30N 54°38' E 015°45'610.2
2018-Jan-09 02:57N 54°35' E 015°37'710.4
2018-Jan-09 02:18N 54°31' E 015°28'310.5
2018-Jan-09 02:00N 54°29' E 015°23'910.5
2018-Jan-09 01:10N 54°24' E 015°11'47 8.6
2018-Jan-08 19:43N 53°47' E 014°22'210.6
2018-Jan-08 19:30N 53°46' E 014°24'510.7
2018-Jan-08 19:00N 53°41' E 014°30'510.1
2018-Jan-08 18:30N 53°37' E 014°35'5 9.4
2018-Jan-08 18:01N 53°33' E 014°37'4 8.6
2018-Jan-08 17:31N 53°29' E 014°37'3 6.9
2018-Jan-08 17:01N 53°25' E 014°34'0 0.1
2018-Jan-08 16:30N 53°25' E 014°34'0 0.0
2018-Jan-08 16:00N 53°25' E 014°34'0 0.0
2018-Jan-08 15:30N 53°25' E 014°34'0 0.0
2018-Jan-08 15:00N 53°25' E 014°34'0 0.0
2018-Jan-08 14:30N 53°25' E 014°34'0 0.0
2018-Jan-08 14:00N 53°25' E 014°34'0 0.0
2018-Jan-08 13:30N 53°25' E 014°34'0 0.0
2018-Jan-08 13:00N 53°25' E 014°34'0 0.0
2018-Jan-08 12:30N 53°25' E 014°34'0 0.0
2018-Jan-08 12:00N 53°25' E 014°34'0 0.0
2018-Jan-08 11:30N 53°25' E 014°34'0 0.0
2018-Jan-08 11:00N 53°25' E 014°34'0 0.0
2018-Jan-08 10:30N 53°25' E 014°34'0 0.0
2018-Jan-08 10:00N 53°25' E 014°34'0 0.0
2018-Jan-08 09:30N 53°25' E 014°34'0 0.0
2018-Jan-08 08:59N 53°25' E 014°34'0 0.0
2018-Jan-08 08:29N 53°25' E 014°34'0 0.0
2018-Jan-08 07:59N 53°25' E 014°34'0 0.0
2018-Jan-08 07:29N 53°25' E 014°34'0 0.0
2018-Jan-08 06:59N 53°25' E 014°34'0 0.0
2018-Jan-08 06:29N 53°25' E 014°34'0 0.0
2018-Jan-08 05:59N 53°25' E 014°34'0 0.0
2018-Jan-08 05:29N 53°25' E 014°34'0 0.0
2018-Jan-08 04:59N 53°25' E 014°34'0 0.0
2018-Jan-08 04:29N 53°25' E 014°34'0 0.0
2018-Jan-08 03:59N 53°25' E 014°34'0 0.0
2018-Jan-08 03:26N 53°25' E 014°34'0 0.0
2018-Jan-08 02:59N 53°25' E 014°34'0 0.0
2018-Jan-08 02:29N 53°25' E 014°34'0 0.0
2018-Jan-08 01:59N 53°25' E 014°34'0 0.0
2018-Jan-08 01:29N 53°25' E 014°34'0 0.0
2018-Jan-08 00:59N 53°25' E 014°34'0 0.0
2018-Jan-08 00:29N 53°25' E 014°34'0 0.0
2018-Jan-07 23:59N 53°25' E 014°34'0 0.0
2018-Jan-07 23:29N 53°25' E 014°34'0 0.0
2018-Jan-07 22:59N 53°25' E 014°34'0 0.0
2018-Jan-07 22:29N 53°25' E 014°34'0 0.0
2018-Jan-07 21:59N 53°25' E 014°34'0 0.0
2018-Jan-07 21:29N 53°25' E 014°34'0 0.0
2018-Jan-07 20:59N 53°25' E 014°34'0 0.0
2018-Jan-07 20:29N 53°25' E 014°34'0 0.0
2018-Jan-07 19:59N 53°25' E 014°34'0 0.0
2018-Jan-07 19:29N 53°25' E 014°34'0 0.0
2018-Jan-07 18:59N 53°25' E 014°34'0 0.0
2018-Jan-07 18:29N 53°25' E 014°34'0 0.0
2018-Jan-07 17:59N 53°25' E 014°34'0 0.0
2018-Jan-07 17:29N 53°25' E 014°34'0 0.0
2018-Jan-07 16:59N 53°25' E 014°34'0 0.0
2018-Jan-07 16:29N 53°25' E 014°34'0 0.0
2018-Jan-07 15:59N 53°25' E 014°34'0 0.0
2018-Jan-07 15:26N 53°25' E 014°34'0 0.0
2018-Jan-07 14:59N 53°25' E 014°34'0 0.0
2018-Jan-07 14:29N 53°25' E 014°34'0 0.0
2018-Jan-07 13:59N 53°25' E 014°34'0 0.0
2018-Jan-07 13:26N 53°25' E 014°34'0 0.0
2018-Jan-07 12:59N 53°25' E 014°34'0 0.0
2018-Jan-07 12:29N 53°25' E 014°34'0 0.0
2018-Jan-07 11:59N 53°25' E 014°34'0 0.0
2018-Jan-07 11:29N 53°25' E 014°34'0 0.0
2018-Jan-07 10:59N 53°25' E 014°34'0 0.0
2018-Jan-07 10:29N 53°25' E 014°34'0 0.0
2018-Jan-07 09:59N 53°25' E 014°34'0 0.0
2018-Jan-07 09:29N 53°25' E 014°34'0 0.0
2018-Jan-07 08:56N 53°25' E 014°34'0 0.0
2018-Jan-07 08:29N 53°25' E 014°34'0 0.0
2018-Jan-07 07:56N 53°25' E 014°34'0 0.0
2018-Jan-07 07:29N 53°25' E 014°34'0 0.0
2018-Jan-07 06:59N 53°25' E 014°34'0 0.0
2018-Jan-07 06:29N 53°25' E 014°34'0 0.0
2018-Jan-07 05:59N 53°25' E 014°34'0 0.0
2018-Jan-07 05:29N 53°25' E 014°34'0 0.0
2018-Jan-07 04:59N 53°25' E 014°34'0 0.0
2018-Jan-07 04:29N 53°25' E 014°34'0 0.0
2018-Jan-07 03:59N 53°25' E 014°34'0 0.0
2018-Jan-07 03:29N 53°25' E 014°34'0 0.0
2018-Jan-07 02:59N 53°25' E 014°34'0 0.0
2018-Jan-07 02:29N 53°25' E 014°34'0 0.0
2018-Jan-07 01:59N 53°25' E 014°34'0 0.0
2018-Jan-07 01:29N 53°25' E 014°34'0 0.0
2018-Jan-07 00:29N 53°25' E 014°34'0 0.0
2018-Jan-06 23:59N 53°25' E 014°34'0 0.0
2018-Jan-06 23:29N 53°25' E 014°34'0 0.0
2018-Jan-06 22:59N 53°25' E 014°34'0 0.0
2018-Jan-06 22:29N 53°25' E 014°34'0 0.0
2018-Jan-06 21:56N 53°25' E 014°34'0 0.0
2018-Jan-06 21:29N 53°25' E 014°34'0 0.0
2018-Jan-06 20:58N 53°25' E 014°34'0 0.0
2018-Jan-06 20:28N 53°25' E 014°34'0 0.0
2018-Jan-06 19:58N 53°25' E 014°34'0 0.0
2018-Jan-06 19:28N 53°25' E 014°34'0 0.0
2018-Jan-06 18:58N 53°25' E 014°34'0 0.0
2018-Jan-06 18:25N 53°25' E 014°34'0 0.0
2018-Jan-06 17:58N 53°25' E 014°34'0 0.0
2018-Jan-06 17:28N 53°25' E 014°34'0 0.0
2018-Jan-06 16:58N 53°25' E 014°34'0 0.0
2018-Jan-06 16:28N 53°25' E 014°34'0 0.0
2018-Jan-06 15:58N 53°25' E 014°34'0 0.0
2018-Jan-06 15:28N 53°25' E 014°34'0 0.0
2018-Jan-06 14:58N 53°25' E 014°34'0 0.0
2018-Jan-06 14:28N 53°25' E 014°34'0 0.0
2018-Jan-06 13:58N 53°25' E 014°34'0 0.0
2018-Jan-06 13:25N 53°25' E 014°34'0 0.0
2018-Jan-06 12:58N 53°25' E 014°34'0 0.0
2018-Jan-06 12:28N 53°25' E 014°34'0 0.0
2018-Jan-06 11:58N 53°25' E 014°34'0 0.0
2018-Jan-06 11:28N 53°25' E 014°34'0 0.0
2018-Jan-06 10:58N 53°25' E 014°34'0 0.0
2018-Jan-06 10:28N 53°25' E 014°34'0 0.0
2018-Jan-06 09:58N 53°25' E 014°34'0 0.0
2018-Jan-06 09:28N 53°25' E 014°34'0 0.0
2018-Jan-06 08:58N 53°25' E 014°34'0 0.0
2018-Jan-06 08:28N 53°25' E 014°34'0 0.0
2018-Jan-06 07:55N 53°25' E 014°34'0 0.0
2018-Jan-06 07:28N 53°25' E 014°34'0 0.0
2018-Jan-06 06:58N 53°25' E 014°34'0 0.0
2018-Jan-06 06:28N 53°25' E 014°34'0 0.0
2018-Jan-06 05:58N 53°25' E 014°34'0 0.0
2018-Jan-06 05:28N 53°25' E 014°34'0 0.0
2018-Jan-06 04:58N 53°25' E 014°34'0 0.0
2018-Jan-06 04:28N 53°25' E 014°34'0 0.0
2018-Jan-06 03:58N 53°25' E 014°34'0 0.0
2018-Jan-06 03:28N 53°25' E 014°34'0 0.0
2018-Jan-06 02:58N 53°25' E 014°34'0 0.0
2018-Jan-06 02:28N 53°25' E 014°34'0 0.0
2018-Jan-06 01:58N 53°25' E 014°34'0 0.0
2018-Jan-06 01:28N 53°25' E 014°34'0 0.0
2018-Jan-06 00:58N 53°25' E 014°34'0 0.0
2018-Jan-06 00:28N 53°25' E 014°34'0 0.0
2018-Jan-05 23:58N 53°25' E 014°34'0 0.0
2018-Jan-05 23:28N 53°25' E 014°34'0 0.0
2018-Jan-05 22:58N 53°25' E 014°34'0 0.0
2018-Jan-05 22:28N 53°25' E 014°34'0 0.0
2018-Jan-05 21:58N 53°25' E 014°34'0 0.0
2018-Jan-05 21:28N 53°25' E 014°34'0 0.0
2018-Jan-05 20:58N 53°25' E 014°34'0 0.0
2018-Jan-05 20:28N 53°25' E 014°34'0 0.0
2018-Jan-05 19:58N 53°25' E 014°34'0 0.0
2018-Jan-05 19:28N 53°25' E 014°34'0 0.0
2018-Jan-05 18:58N 53°25' E 014°34'0 0.0
2018-Jan-05 18:28N 53°25' E 014°34'0 0.0
2018-Jan-05 17:58N 53°25' E 014°34'0 0.0
2018-Jan-05 17:25N 53°25' E 014°34'0 0.0
2018-Jan-05 16:58N 53°25' E 014°34'0 0.0
2018-Jan-05 16:28N 53°25' E 014°34'0 0.0
2018-Jan-05 15:58N 53°25' E 014°34'0 0.0
2018-Jan-05 15:28N 53°25' E 014°34'0 0.0
2018-Jan-05 14:58N 53°25' E 014°34'0 0.0
2018-Jan-05 14:28N 53°25' E 014°34'0 0.0
2018-Jan-05 13:58N 53°25' E 014°34'0 0.0
2018-Jan-05 13:28N 53°25' E 014°34'0 0.0
2018-Jan-05 12:55N 53°25' E 014°34'0 0.0
2018-Jan-05 12:25N 53°25' E 014°34'0 0.0
2018-Jan-05 11:58N 53°25' E 014°34'0 0.0
2018-Jan-05 11:28N 53°25' E 014°34'0 0.0
2018-Jan-05 10:58N 53°25' E 014°34'0 0.0
2018-Jan-05 10:31N 53°25' E 014°34'0 0.0
2018-Jan-05 10:01N 53°25' E 014°34'0 0.0
2018-Jan-05 09:30N 53°25' E 014°34'0 0.0
2018-Jan-05 09:00N 53°25' E 014°34'0 0.0
2018-Jan-05 08:30N 53°25' E 014°34'0 0.0
2018-Jan-05 08:00N 53°25' E 014°34'0 0.0
2018-Jan-05 07:30N 53°25' E 014°34'0 0.0
2018-Jan-05 07:00N 53°25' E 014°34'0 0.0
2018-Jan-05 06:30N 53°25' E 014°34'0 0.0
2018-Jan-05 06:00N 53°25' E 014°34'0 0.0
2018-Jan-05 05:30N 53°25' E 014°34'0 0.0
2018-Jan-05 05:00N 53°25' E 014°34'0 0.0
2018-Jan-05 04:30N 53°25' E 014°34'0 0.0
2018-Jan-05 04:00N 53°25' E 014°34'0 0.0
2018-Jan-05 03:30N 53°25' E 014°34'0 0.0
2018-Jan-05 03:00N 53°25' E 014°34'0 0.0
2018-Jan-05 02:30N 53°25' E 014°34'0 0.0
2018-Jan-05 02:00N 53°25' E 014°34'0 0.0
2018-Jan-05 01:30N 53°25' E 014°34'0 0.0
2018-Jan-05 01:00N 53°25' E 014°34'0 0.0
2018-Jan-05 00:30N 53°25' E 014°34'0 0.0
2018-Jan-05 00:00N 53°25' E 014°34'0 0.0
2018-Jan-04 23:30N 53°25' E 014°34'0 0.0
2018-Jan-04 23:00N 53°25' E 014°34'0 0.0
2018-Jan-04 22:30N 53°25' E 014°34'0 0.0
2018-Jan-04 22:00N 53°25' E 014°34'0 0.0
2018-Jan-04 21:30N 53°25' E 014°34'0 0.0
2018-Jan-04 21:00N 53°25' E 014°34'0 0.0
2018-Jan-04 20:30N 53°25' E 014°34'0 0.0
2018-Jan-04 20:00N 53°25' E 014°34'0 0.0
2018-Jan-04 19:30N 53°25' E 014°34'0 0.0
2018-Jan-04 19:00N 53°25' E 014°34'0 0.0
2018-Jan-04 18:30N 53°25' E 014°34'0 0.0
2018-Jan-04 18:00N 53°25' E 014°34'0 0.0
2018-Jan-04 17:30N 53°25' E 014°34'0 0.7
2018-Jan-04 17:00N 53°26' E 014°35'3 6.1
2018-Jan-04 16:30N 53°29' E 014°37'4 8.2
2018-Jan-04 16:00N 53°33' E 014°37'4 7.8
2018-Jan-04 15:29N 53°36' E 014°35'4 8.8
2018-Jan-04 15:00N 53°40' E 014°32'5 9.3
2018-Jan-04 14:30N 53°44' E 014°27'  

Dump ship's entire track history